createdAt,value
2022-09-05T00:01:28.689Z,99944.13
2022-09-05T00:04:39.824Z,99938.72
2022-09-05T00:07:59.999Z,99939.16
2022-09-05T00:11:43.062Z,99938.56
2022-09-05T00:15:16.522Z,99940.66
2022-09-05T00:20:04.356Z,99929.94
2022-09-05T00:24:19.237Z,99934.88
2022-09-05T00:24:35.812Z,99936.34
2022-09-05T00:27:19.750Z,99929.97
2022-09-05T00:30:47.321Z,99939.84
2022-09-05T00:33:27.332Z,99936.53
2022-09-05T00:36:17.743Z,99947.25
2022-09-05T00:39:00.721Z,99934.03
2022-09-05T00:41:32.890Z,99941.91
2022-09-05T00:44:07.051Z,99935.06
2022-09-05T00:46:44.694Z,99945.22
2022-09-05T00:49:59.969Z,99945.84
2022-09-05T00:52:42.359Z,99945.88
2022-09-05T00:55:25.749Z,99942.19
2022-09-05T00:58:03.403Z,99945.91
2022-09-05T01:00:48.510Z,99943.22
2022-09-05T01:03:42.309Z,99950.44
2022-09-05T01:06:37.399Z,99948.81
2022-09-05T01:09:14.227Z,99943.25
2022-09-05T01:12:10.376Z,99948.38
2022-09-05T01:14:56.863Z,99951.25
2022-09-05T01:17:50.090Z,99942.41
2022-09-05T01:21:00.226Z,99950.66
2022-09-05T01:24:39.679Z,99946.97
2022-09-05T01:28:35.708Z,99946.13
2022-09-05T01:30:39.963Z,99948.38
2022-09-05T01:33:18.089Z,99956.22
2022-09-05T01:36:04.350Z,99961.38
2022-09-05T01:38:48.334Z,99954.38
2022-09-05T01:41:53.793Z,99952.31
2022-09-05T01:44:43.564Z,99943.84
2022-09-05T01:47:44.288Z,99958.50
2022-09-05T01:50:20.688Z,99947.59
2022-09-05T01:53:10.774Z,99956.22
2022-09-05T01:56:06.012Z,99959.94
2022-09-05T01:58:55.802Z,99966.31
2022-09-05T02:01:33.201Z,99962.78
2022-09-05T02:04:19.931Z,99964.44
2022-09-05T02:07:19.408Z,99961.09
2022-09-05T02:10:24.840Z,99963.38
2022-09-05T02:13:11.495Z,99959.25
2022-09-05T02:15:59.355Z,99970.19
2022-09-05T02:18:54.895Z,99966.44
2022-09-05T02:21:55.481Z,99971.81
2022-09-05T02:24:41.317Z,99966.25
2022-09-05T02:28:04.360Z,99968.72
2022-09-05T02:30:36.966Z,99977.38
2022-09-05T02:33:29.222Z,99981.66
2022-09-05T02:36:14.988Z,99983.31
2022-09-05T02:45:00.381Z,99978.56
2022-09-05T02:45:07.590Z,99979.59
2022-09-05T02:45:34.967Z,99985.38
2022-09-05T02:48:46.410Z,99980.00
2022-09-05T02:56:34.694Z,99984.94
2022-09-05T02:57:39.222Z,99981.88
2022-09-05T02:58:06.201Z,99971.97
2022-09-05T03:00:48.457Z,99979.38
2022-09-05T03:03:28.825Z,99972.38
2022-09-05T03:06:26.045Z,99975.22
2022-09-05T03:09:35.909Z,99970.50
2022-09-05T03:12:29.105Z,99969.25
2022-09-05T03:15:22.899Z,99972.75
2022-09-05T03:18:30.429Z,99977.28
2022-09-05T03:21:21.015Z,99971.75
2022-09-05T03:24:04.742Z,99973.78
2022-09-05T03:27:05.887Z,99975.84
2022-09-05T03:29:40.341Z,99972.13
2022-09-05T03:32:20.800Z,99971.31
2022-09-05T03:35:10.876Z,99969.47
2022-09-05T03:38:20.563Z,99970.88
2022-09-05T03:41:14.199Z,99973.19
2022-09-05T03:44:08.782Z,99974.00
2022-09-05T03:47:24.585Z,99978.69
2022-09-05T03:57:08.458Z,99975.38
2022-09-05T03:57:13.435Z,99980.72
2022-09-05T03:57:20.511Z,99975.38
2022-09-05T04:00:06.612Z,99974.97
2022-09-05T04:08:11.093Z,99989.34
2022-09-05T04:08:18.782Z,99992.44
2022-09-05T04:08:57.094Z,99992.44
2022-09-05T04:11:52.698Z,99989.09
2022-09-05T04:14:33.313Z,99991.13
2022-09-05T04:17:31.473Z,99991.78
2022-09-05T04:20:39.806Z,99994.44
2022-09-05T04:23:19.078Z,99993.44
2022-09-05T04:26:13.960Z,99989.09
2022-09-05T04:29:04.143Z,100004.00
2022-09-05T04:32:03.937Z,100006.06
2022-09-05T04:34:51.178Z,100005.84
2022-09-05T04:37:55.195Z,100008.16
2022-09-05T04:40:32.959Z,100010.44
2022-09-05T04:43:41.965Z,100014.75
2022-09-05T04:46:19.190Z,100017.25
2022-09-05T04:49:03.065Z,100021.16
2022-09-05T04:52:00.312Z,100020.16
2022-09-05T04:54:35.341Z,100025.06
2022-09-05T04:57:35.820Z,100030.44
2022-09-05T05:06:00.769Z,100031.63
2022-09-05T05:06:05.346Z,100031.84
2022-09-05T05:06:45.057Z,100033.47
2022-09-05T05:09:30.736Z,100030.72
2022-09-05T05:17:55.393Z,100029.25
2022-09-05T05:17:56.599Z,100031.13
2022-09-05T05:18:48.837Z,100032.78
2022-09-05T05:21:29.461Z,100036.56
2022-09-05T05:24:13.185Z,100034.19
2022-09-05T05:26:56.911Z,100034.47
2022-09-05T05:29:58.525Z,100039.06
2022-09-05T05:32:52.513Z,100041.22
2022-09-05T05:35:31.713Z,100039.84
2022-09-05T05:38:45.074Z,100041.28
2022-09-05T05:41:32.493Z,100044.13
2022-09-05T05:44:14.468Z,100047.38
2022-09-05T05:46:55.589Z,100049.78
2022-09-05T05:49:50.425Z,100054.69
2022-09-05T05:53:00.852Z,100049.56
2022-09-05T05:55:52.670Z,100044.63
2022-09-05T05:58:52.220Z,100049.41
2022-09-05T06:02:04.365Z,100049.00
2022-09-05T06:05:13.601Z,100048.66
2022-09-05T06:10:14.401Z,100054.84
2022-09-05T06:14:58.422Z,100049.66
2022-09-05T06:15:02.504Z,100050.63
2022-09-05T06:17:28.163Z,100058.63
2022-09-05T06:22:05.370Z,100052.16
2022-09-05T06:23:32.257Z,100062.22
2022-09-05T06:26:23.248Z,100058.47
2022-09-05T06:29:22.585Z,100062.19
2022-09-05T06:32:31.205Z,100063.44
2022-09-05T06:35:17.778Z,100056.50
2022-09-05T06:38:21.229Z,100056.34
2022-09-05T06:41:15.965Z,100047.13
2022-09-05T06:44:12.736Z,100051.53
2022-09-05T06:46:55.288Z,100060.19
2022-09-05T06:50:26.941Z,100053.19
2022-09-05T06:53:08.199Z,100059.03
2022-09-05T06:56:07.457Z,100050.72
2022-09-05T06:59:09.727Z,100053.38
2022-09-05T07:02:00.513Z,100050.66
2022-09-05T07:05:23.505Z,100056.53
2022-09-05T07:07:52.958Z,100045.28
2022-09-05T07:10:38.994Z,100057.53
2022-09-05T07:13:25.231Z,100056.91
2022-09-05T07:16:10.810Z,100046.94
2022-09-05T07:19:27.665Z,100040.63
2022-09-05T07:22:47.344Z,100058.66
2022-09-05T07:25:20.282Z,100051.78
2022-09-05T07:28:29.968Z,100055.28
2022-09-05T07:31:03.056Z,100056.66
2022-09-05T07:33:39.330Z,100052.84
2022-09-05T07:36:17.192Z,100046.06
2022-09-05T07:39:02.267Z,100050.28
2022-09-05T07:41:45.245Z,100055.19
2022-09-05T07:44:29.669Z,100059.72
2022-09-05T07:47:18.481Z,100061.88
2022-09-05T07:50:40.151Z,100057.63
2022-09-05T07:56:55.221Z,100053.03
2022-09-05T07:57:15.920Z,100053.34
2022-09-05T07:58:41.864Z,100058.16
2022-09-05T08:01:14.845Z,100065.63
2022-09-05T08:03:54.593Z,100062.88
2022-09-05T08:06:50.738Z,100063.16
2022-09-05T08:10:06.261Z,100055.19
2022-09-05T08:12:57.693Z,100053.31
2022-09-05T08:16:10.763Z,100055.47
2022-09-05T08:18:36.648Z,100060.94
2022-09-05T08:21:13.514Z,100051.97
2022-09-05T08:23:48.156Z,100065.94
2022-09-05T08:26:46.907Z,100059.69
2022-09-05T08:29:38.275Z,100060.13
2022-09-05T08:32:35.241Z,100056.97
2022-09-05T08:35:15.907Z,100062.13
2022-09-05T08:37:50.239Z,100055.59
2022-09-05T08:40:30.997Z,100058.03
2022-09-05T08:46:23.474Z,100061.53
2022-09-05T08:46:42.601Z,100054.09
2022-09-05T08:49:38.589Z,100049.91
2022-09-05T08:52:33.897Z,100061.22
2022-09-05T08:55:14.573Z,100050.00
2022-09-05T08:58:04.473Z,100048.41
2022-09-05T09:00:55.085Z,100046.50
2022-09-05T09:03:53.661Z,100033.28
2022-09-05T09:07:47.722Z,100050.81
2022-09-05T09:10:11.713Z,100045.72
2022-09-05T09:13:19.887Z,100043.97
2022-09-05T09:16:14.398Z,100039.16
2022-09-05T09:18:48.732Z,100028.94
2022-09-05T09:21:25.365Z,100036.63
2022-09-05T09:24:27.759Z,100029.75
2022-09-05T09:27:09.139Z,100035.75
2022-09-05T09:29:42.833Z,100032.13
2022-09-05T09:32:17.350Z,100030.88
2022-09-05T09:35:23.433Z,100027.44
2022-09-05T09:38:15.895Z,100024.25
2022-09-05T09:41:12.214Z,100041.25
2022-09-05T09:44:06.803Z,100039.00
2022-09-05T09:46:43.671Z,100038.00
2022-09-05T09:49:32.920Z,100041.66
2022-09-05T09:52:41.804Z,100035.13
2022-09-05T09:55:41.072Z,100026.97
2022-09-05T09:58:31.449Z,100035.47
2022-09-05T10:01:35.555Z,100025.75
2022-09-05T10:08:40.732Z,100033.81
2022-09-05T10:10:47.955Z,100031.09
2022-09-05T10:11:18.795Z,100033.75
2022-09-05T10:13:38.414Z,100027.72
2022-09-05T10:16:25.053Z,100025.38
2022-09-05T10:20:06.070Z,100028.00
2022-09-05T10:22:50.214Z,100029.38
2022-09-05T10:25:51.309Z,100029.06
2022-09-05T10:28:22.846Z,100023.44
2022-09-05T10:31:30.217Z,100023.47
2022-09-05T10:35:16.835Z,100028.31
2022-09-05T10:37:05.392Z,100029.38
2022-09-05T10:39:41.672Z,100022.97
2022-09-05T10:42:17.903Z,100032.59
2022-09-05T10:44:58.301Z,100031.97
2022-09-05T10:47:47.896Z,100027.56
2022-09-05T10:50:32.292Z,100017.03
2022-09-05T10:53:10.482Z,100017.91
2022-09-05T10:55:59.825Z,100019.44
2022-09-05T11:00:05.670Z,100015.59
2022-09-05T11:02:22.383Z,100009.63
2022-09-05T11:04:46.597Z,100014.28
2022-09-05T11:07:45.783Z,100007.84
2022-09-05T11:10:45.052Z,99999.78
2022-09-05T11:13:47.554Z,100004.25
2022-09-05T11:16:22.145Z,99998.59
2022-09-05T11:19:03.873Z,99996.78
2022-09-05T11:21:50.496Z,99989.16
2022-09-05T11:24:42.040Z,99984.72
2022-09-05T11:27:24.708Z,99986.03
2022-09-05T11:30:28.709Z,99983.56
2022-09-05T11:37:43.063Z,99985.84
2022-09-05T11:40:07.347Z,99983.28
2022-09-05T11:40:30.054Z,99981.31
2022-09-05T11:43:23.035Z,99989.22
2022-09-05T11:46:29.479Z,99985.31
2022-09-05T11:49:43.337Z,99979.28
2022-09-05T11:52:40.738Z,99976.69
2022-09-05T11:55:47.109Z,99972.53
2022-09-05T11:58:45.460Z,99978.13
2022-09-05T12:01:45.338Z,99971.81
2022-09-05T12:05:48.447Z,99978.34
2022-09-05T12:08:01.820Z,99974.28
2022-09-05T12:11:06.970Z,99965.03
2022-09-05T12:14:25.474Z,99954.19
2022-09-05T12:20:17.162Z,99956.25
2022-09-05T12:23:06.473Z,99949.09
2022-09-05T12:27:38.516Z,99950.53
2022-09-05T12:29:28.143Z,99945.53
2022-09-05T12:34:39.890Z,99942.53
2022-09-05T12:36:06.371Z,99939.47
2022-09-05T12:40:54.622Z,99936.44
2022-09-05T12:41:41.218Z,99960.72
2022-09-05T12:41:44.764Z,99943.06
2022-09-05T12:44:45.397Z,99933.66
2022-09-05T12:47:21.199Z,99925.66
2022-09-05T12:50:14.449Z,99926.56
2022-09-05T12:52:51.816Z,99923.00
2022-09-05T12:56:12.164Z,99920.44
2022-09-05T13:02:55.152Z,99916.34
2022-09-05T13:03:13.876Z,99914.25
2022-09-05T13:05:01.089Z,99911.81
2022-09-05T13:07:41.001Z,99902.88
2022-09-05T13:12:35.760Z,99900.28
2022-09-05T13:15:00.997Z,99910.38
2022-09-05T13:16:46.184Z,99904.06
2022-09-05T13:19:33.234Z,99897.41
2022-09-05T13:22:06.220Z,99899.19
2022-09-05T13:24:41.593Z,99901.44
2022-09-05T13:27:33.357Z,99901.97
2022-09-05T13:31:28.591Z,99894.63
2022-09-05T13:38:07.593Z,99885.19
2022-09-05T13:38:42.045Z,99889.28
2022-09-05T13:39:12.153Z,99879.25
2022-09-05T13:41:51.165Z,99877.97
2022-09-05T13:44:27.975Z,99865.75
2022-09-05T13:47:28.798Z,99864.84
2022-09-05T13:50:07.545Z,99873.59
2022-09-05T13:52:44.452Z,99864.91
2022-09-05T13:55:44.111Z,99866.53
2022-09-05T13:58:39.885Z,99853.19
2022-09-05T14:01:26.769Z,99856.22
2022-09-05T14:07:53.442Z,99848.59
2022-09-05T14:10:57.555Z,99850.22
2022-09-05T14:14:09.299Z,99846.31
2022-09-05T14:16:53.514Z,99837.06
2022-09-05T14:19:45.813Z,99840.47
2022-09-05T14:22:45.741Z,99838.53
2022-09-05T14:25:26.700Z,99842.53
2022-09-05T14:28:01.080Z,99836.00
2022-09-05T14:32:04.384Z,99826.22
2022-09-05T14:37:39.711Z,99821.69
2022-09-05T14:37:43.765Z,99822.00
2022-09-05T14:40:02.170Z,99821.84
2022-09-05T14:43:13.984Z,99824.16
2022-09-05T14:46:07.528Z,99818.44
2022-09-05T14:48:53.726Z,99820.31
2022-09-05T14:51:39.204Z,99820.31
2022-09-05T15:02:45.488Z,99812.19
2022-09-05T15:02:54.384Z,99808.66
2022-09-05T15:06:32.887Z,99812.84
2022-09-05T15:12:17.409Z,99818.78
2022-09-05T15:12:20.656Z,99816.94
2022-09-05T15:15:15.577Z,99809.91
2022-09-05T15:17:50.267Z,99803.97
2022-09-05T15:20:32.623Z,99800.97
2022-09-05T15:23:16.061Z,99806.88
2022-09-05T15:25:57.648Z,99798.19
2022-09-05T15:28:43.273Z,99791.13
2022-09-05T15:31:24.789Z,99792.28
2022-09-05T15:33:56.768Z,99793.81
2022-09-05T15:36:35.518Z,99794.22
2022-09-05T15:39:24.904Z,99790.78
2022-09-05T15:42:11.288Z,99795.91
2022-09-05T15:45:06.336Z,99799.38
2022-09-05T15:47:35.308Z,99789.28
2022-09-05T15:50:19.014Z,99793.28
2022-09-05T15:52:55.872Z,99786.25
2022-09-05T15:55:27.767Z,99778.66
2022-09-05T15:58:07.519Z,99786.34
2022-09-05T16:00:51.657Z,99786.13
2022-09-05T16:09:16.622Z,99781.53
2022-09-05T16:10:30.117Z,99775.94
2022-09-05T16:10:57.393Z,99778.31
2022-09-05T16:12:44.794Z,99777.97
2022-09-05T16:17:35.026Z,99775.28
2022-09-05T16:23:15.453Z,99766.09
2022-09-05T16:23:21.115Z,99772.72
2022-09-05T16:24:24.946Z,99771.03
2022-09-05T16:27:18.562Z,99766.63
2022-09-05T16:29:51.713Z,99768.00
2022-09-05T16:32:29.104Z,99769.91
2022-09-05T16:35:08.615Z,99773.16
2022-09-05T16:37:52.408Z,99765.28
2022-09-05T16:40:27.095Z,99768.28
2022-09-05T16:43:09.030Z,99769.63
2022-09-05T16:45:52.545Z,99755.81
2022-09-05T16:48:45.539Z,99758.28
2022-09-05T16:51:24.673Z,99764.50
2022-09-05T16:54:10.957Z,99761.72
2022-09-05T16:56:47.586Z,99770.06
2022-09-05T16:59:28.415Z,99763.50
2022-09-05T17:02:08.030Z,99763.69
2022-09-05T17:05:05.983Z,99764.44
2022-09-05T17:07:46.537Z,99759.81
2022-09-05T17:10:25.728Z,99762.16
2022-09-05T17:12:57.625Z,99771.84
2022-09-05T17:15:35.438Z,99766.88
2022-09-05T17:18:24.263Z,99767.88
2022-09-05T17:21:01.484Z,99763.47
2022-09-05T17:29:16.124Z,99766.09
2022-09-05T17:29:32.523Z,99759.25
2022-09-05T17:32:38.673Z,99767.41
2022-09-05T17:35:33.761Z,99764.28
2022-09-05T17:38:25.855Z,99766.31
2022-09-05T17:41:14.132Z,99766.97
2022-09-05T17:43:57.923Z,99758.47
2022-09-05T17:46:34.425Z,99766.00
2022-09-05T17:49:18.204Z,99763.53
2022-09-05T17:51:55.808Z,99763.69
2022-09-05T17:54:31.750Z,99769.84
2022-09-05T17:57:28.050Z,99775.41
2022-09-05T18:00:43.642Z,99778.00
2022-09-05T18:03:45.895Z,99778.97
2022-09-05T18:06:20.491Z,99781.91
2022-09-05T18:08:52.949Z,99790.38
2022-09-05T18:11:27.926Z,99786.78
2022-09-05T18:14:10.617Z,99792.56
2022-09-05T18:17:36.502Z,99791.56
2022-09-05T18:19:57.921Z,99798.47
2022-09-05T18:22:36.899Z,99797.00
2022-09-05T18:25:28.261Z,99798.78
2022-09-05T18:28:28.961Z,99798.66
2022-09-05T18:31:40.838Z,99810.38
2022-09-05T18:34:19.632Z,99807.84
2022-09-05T18:36:56.990Z,99807.97
2022-09-05T18:39:37.594Z,99810.19
2022-09-05T18:42:26.043Z,99812.31
2022-09-05T18:45:15.345Z,99802.72
2022-09-05T18:53:34.781Z,99812.66
2022-09-05T18:56:21.106Z,99815.94
2022-09-05T18:59:24.169Z,99812.78
2022-09-05T19:02:01.061Z,99814.88
2022-09-05T19:04:42.431Z,99812.19
2022-09-05T19:07:48.286Z,99820.75
2022-09-05T19:10:36.013Z,99816.31
2022-09-05T19:13:15.060Z,99820.63
2022-09-05T19:16:21.176Z,99820.03
2022-09-05T19:19:17.332Z,99817.78
2022-09-05T19:22:45.164Z,99818.50
2022-09-05T19:24:51.349Z,99815.00
2022-09-05T19:33:03.396Z,99816.03
2022-09-05T19:36:58.158Z,99806.56
2022-09-05T19:37:05.923Z,99811.03
2022-09-05T19:37:14.799Z,99806.34
2022-09-05T19:42:54.191Z,99798.81
2022-09-05T19:47:37.945Z,99805.78
2022-09-05T19:47:43.861Z,99803.97
2022-09-05T19:48:26.761Z,99806.00
2022-09-05T19:51:16.275Z,99807.31
2022-09-05T19:54:04.215Z,99800.88
2022-09-05T19:56:38.997Z,99801.22
2022-09-05T19:59:24.878Z,99792.69
2022-09-05T20:01:57.081Z,99805.09
2022-09-05T20:04:53.082Z,99804.69
2022-09-05T20:07:27.959Z,99802.00
2022-09-05T20:10:02.954Z,99807.78
2022-09-05T20:12:43.547Z,99811.28
2022-09-05T20:15:17.968Z,99808.94
2022-09-05T20:17:54.026Z,99804.69
2022-09-05T20:20:31.255Z,99813.19
2022-09-05T20:23:07.382Z,99802.53
2022-09-05T20:25:41.958Z,99803.69
2022-09-05T20:28:20.851Z,99799.03
2022-09-05T20:30:55.608Z,99795.50
2022-09-05T20:33:38.896Z,99793.69
2022-09-05T20:42:15.686Z,99805.34
2022-09-05T20:43:18.924Z,99798.59
2022-09-05T20:43:23.017Z,99796.66
2022-09-05T20:45:01.277Z,99794.94
2022-09-05T20:51:33.272Z,99800.38
2022-09-05T20:54:18.416Z,99800.63
2022-09-05T20:54:20.153Z,99802.50
2022-09-05T20:56:33.257Z,99794.25
2022-09-05T20:59:12.505Z,99797.41
2022-09-05T21:01:55.073Z,99793.75
2022-09-05T21:04:32.862Z,99790.13
2022-09-05T21:07:13.230Z,99792.56
2022-09-05T21:09:55.205Z,99796.09
2022-09-05T21:12:34.608Z,99800.84
2022-09-05T21:15:24.300Z,99797.41
2022-09-05T21:18:16.246Z,99796.06
2022-09-05T21:20:53.962Z,99796.16
2022-09-05T21:23:36.896Z,99793.53
2022-09-05T21:26:25.246Z,99799.72
2022-09-05T21:29:04.108Z,99798.06
2022-09-05T21:31:45.680Z,99789.41
2022-09-05T21:34:38.371Z,99797.31
2022-09-05T21:37:18.081Z,99797.09
2022-09-05T21:39:59.540Z,99803.50
2022-09-05T21:44:10.514Z,99794.63
2022-09-05T21:47:44.678Z,99794.03
2022-09-05T21:48:16.148Z,99789.72
2022-09-05T21:50:51.387Z,99781.88
2022-09-05T21:57:16.863Z,99786.41
2022-09-05T21:59:20.182Z,99786.63
2022-09-05T21:59:38.841Z,99783.75
2022-09-05T22:02:18.108Z,99792.47
2022-09-05T22:04:56.869Z,99788.97
2022-09-05T22:07:35.584Z,99784.66
2022-09-05T22:10:08.530Z,99786.50
2022-09-05T22:12:40.451Z,99781.13
2022-09-05T22:15:27.794Z,99783.59
2022-09-05T22:18:16.723Z,99785.31
2022-09-05T22:21:32.775Z,99788.50
2022-09-05T22:23:48.616Z,99787.56
2022-09-05T22:26:21.216Z,99793.56
2022-09-05T22:28:52.837Z,99792.16
2022-09-05T22:31:24.506Z,99795.88
2022-09-05T22:33:58.946Z,99785.59
2022-09-05T22:36:32.249Z,99789.75
2022-09-05T22:39:03.896Z,99785.19
2022-09-05T22:41:38.737Z,99789.75
2022-09-05T22:44:10.305Z,99775.50
2022-09-05T22:46:41.966Z,99777.16
2022-09-05T22:49:13.570Z,99785.59
2022-09-05T22:51:45.168Z,99783.28
2022-09-05T22:54:16.738Z,99782.06
2022-09-05T22:56:51.055Z,99783.91
2022-09-05T22:59:22.677Z,99784.13
2022-09-05T23:01:54.477Z,99780.63
2022-09-05T23:04:26.510Z,99781.66
2022-09-05T23:07:02.665Z,99779.56
2022-09-05T23:09:35.266Z,99783.91
2022-09-05T23:12:07.077Z,99785.53
2022-09-05T23:14:38.662Z,99778.53
2022-09-05T23:17:13.222Z,99783.66
2022-09-05T23:19:44.801Z,99771.91
2022-09-05T23:22:16.688Z,99782.84
2022-09-05T23:24:48.292Z,99778.53
2022-09-05T23:27:19.949Z,99768.03
2022-09-05T23:29:51.557Z,99771.53
2022-09-05T23:32:23.141Z,99774.22
2022-09-05T23:34:54.852Z,99761.84
2022-09-05T23:37:26.510Z,99769.69
2022-09-05T23:39:58.237Z,99769.88
2022-09-05T23:42:29.997Z,99773.59
2022-09-05T23:45:01.612Z,99765.34
2022-09-05T23:47:35.616Z,99765.13
2022-09-05T23:50:07.500Z,99760.81
2022-09-05T23:52:40.048Z,99758.13
2022-09-05T23:55:14.319Z,99757.72
2022-09-05T23:57:46.695Z,99763.09
